createdAt,value
2022-12-03T00:00:35.162Z,18.13
2022-12-03T00:03:19.367Z,19.20
2022-12-03T00:06:03.344Z,20.13
2022-12-03T00:08:48.685Z,18.43
2022-12-03T00:11:32.760Z,16.20
2022-12-03T00:14:16.479Z,18.63
2022-12-03T00:17:00.256Z,18.23
2022-12-03T00:19:44.059Z,18.57
2022-12-03T00:22:29.135Z,19.00
2022-12-03T00:25:14.473Z,18.03
2022-12-03T00:27:58.124Z,19.03
2022-12-03T00:30:41.964Z,18.70
2022-12-03T00:33:25.800Z,18.00
2022-12-03T00:36:10.051Z,17.80
2022-12-03T00:38:53.862Z,16.93
2022-12-03T00:41:39.079Z,17.37
2022-12-03T00:44:23.084Z,17.17
2022-12-03T00:47:07.054Z,16.37
2022-12-03T00:49:51.092Z,16.23
2022-12-03T00:52:35.128Z,16.33
2022-12-03T00:55:19.350Z,15.33
2022-12-03T00:58:04.740Z,18.00
2022-12-03T01:00:48.874Z,16.33
2022-12-03T01:03:32.917Z,17.63
2022-12-03T01:06:16.963Z,18.37
2022-12-03T01:09:00.942Z,18.30
2022-12-03T01:11:45.065Z,17.47
2022-12-03T01:14:30.470Z,17.60
2022-12-03T01:17:14.709Z,18.83
2022-12-03T01:19:59.311Z,19.60
2022-12-03T01:22:43.270Z,17.27
2022-12-03T01:25:27.236Z,18.70
2022-12-03T01:28:11.389Z,17.13
2022-12-03T01:31:14.007Z,19.53
2022-12-03T01:33:58.064Z,18.77
2022-12-03T01:36:42.388Z,20.53
2022-12-03T01:39:26.429Z,19.03
2022-12-03T01:42:13.261Z,20.67
2022-12-03T01:44:59.257Z,19.73
2022-12-03T01:47:44.656Z,19.73
2022-12-03T01:50:33.244Z,19.97
2022-12-03T01:53:19.827Z,18.97
2022-12-03T01:56:03.735Z,20.70
2022-12-03T01:58:48.272Z,20.07
2022-12-03T02:01:32.165Z,19.07
2022-12-03T02:04:20.082Z,17.67
2022-12-03T02:07:21.405Z,18.13
2022-12-03T02:10:06.101Z,17.30
2022-12-03T02:12:53.837Z,16.43
2022-12-03T02:15:39.362Z,16.67
2022-12-03T02:18:23.153Z,18.40
2022-12-03T02:21:16.714Z,16.97
2022-12-03T02:24:08.904Z,17.20
2022-12-03T02:26:54.100Z,17.37
2022-12-03T02:29:38.052Z,16.73
2022-12-03T02:32:23.527Z,16.73
2022-12-03T02:35:08.096Z,17.07
2022-12-03T02:37:55.931Z,16.80
2022-12-03T02:40:40.356Z,15.27
2022-12-03T02:43:39.610Z,14.93
2022-12-03T02:46:23.504Z,14.77
2022-12-03T02:49:08.023Z,16.17
2022-12-03T02:51:51.862Z,14.43
2022-12-03T02:54:36.280Z,15.13
2022-12-03T02:57:20.162Z,14.63
2022-12-03T03:00:06.160Z,16.87
2022-12-03T03:02:51.250Z,14.23
2022-12-03T03:05:37.738Z,16.27
2022-12-03T03:08:21.577Z,16.47
2022-12-03T03:11:05.707Z,15.93
2022-12-03T03:13:49.499Z,16.03
2022-12-03T03:16:36.263Z,15.37
2022-12-03T03:19:20.864Z,15.23
2022-12-03T03:22:04.667Z,16.10
2022-12-03T03:24:48.491Z,16.17
2022-12-03T03:27:32.668Z,15.07
2022-12-03T03:30:16.903Z,14.37
2022-12-03T03:33:02.394Z,14.47
2022-12-03T03:35:48.321Z,14.97
2022-12-03T03:38:33.628Z,15.40
2022-12-03T03:41:18.487Z,13.23
2022-12-03T03:44:02.633Z,12.70
2022-12-03T03:46:46.316Z,15.83
2022-12-03T03:49:31.541Z,12.10
2022-12-03T03:52:16.689Z,13.43
2022-12-03T03:55:00.693Z,13.33
2022-12-03T03:57:44.495Z,13.33
2022-12-03T04:00:28.511Z,13.10
2022-12-03T04:03:12.833Z,14.57
2022-12-03T04:05:58.104Z,9.90
2022-12-03T04:08:41.823Z,10.90
2022-12-03T04:11:42.644Z,10.40
2022-12-03T04:14:26.372Z,9.83
2022-12-03T04:17:10.014Z,9.53
2022-12-03T04:19:53.753Z,11.13
2022-12-03T04:22:40.561Z,10.37
2022-12-03T04:25:42.095Z,10.70
2022-12-03T04:28:43.017Z,11.33
2022-12-03T04:31:44.539Z,11.40
2022-12-03T04:34:42.148Z,11.73
2022-12-03T04:37:26.020Z,12.13
2022-12-03T04:40:25.635Z,12.37
2022-12-03T04:43:09.287Z,12.80
2022-12-03T04:45:53.016Z,13.50
2022-12-03T04:48:36.721Z,12.80
2022-12-03T04:51:20.488Z,13.13
2022-12-03T04:54:04.285Z,13.30
2022-12-03T04:56:49.417Z,14.97
2022-12-03T04:59:34.322Z,13.03
2022-12-03T05:02:18.622Z,17.93
2022-12-03T05:05:02.318Z,16.30
2022-12-03T05:07:46.879Z,15.27
2022-12-03T05:10:30.671Z,15.63
2022-12-03T05:13:15.837Z,16.73
2022-12-03T05:15:59.833Z,17.40
2022-12-03T05:18:43.814Z,17.30
2022-12-03T05:21:27.926Z,19.30
2022-12-03T05:24:11.878Z,19.33
2022-12-03T05:26:55.850Z,17.97
2022-12-03T05:29:41.277Z,18.13
2022-12-03T05:32:25.366Z,18.47
2022-12-03T05:35:10.768Z,20.07
2022-12-03T05:37:55.592Z,21.00
2022-12-03T05:40:39.692Z,18.83
2022-12-03T05:43:22.550Z,22.80
2022-12-03T05:46:08.106Z,18.37
2022-12-03T05:48:52.051Z,16.93
2022-12-03T05:51:35.974Z,21.03
2022-12-03T05:54:19.921Z,17.87
2022-12-03T05:57:03.959Z,18.83
2022-12-03T05:59:48.088Z,16.23
2022-12-03T06:02:33.798Z,16.20
2022-12-03T06:05:19.586Z,18.13
2022-12-03T06:08:03.709Z,18.73
2022-12-03T06:10:47.802Z,22.93
2022-12-03T06:13:31.831Z,17.83
2022-12-03T06:16:16.016Z,16.33
2022-12-03T06:19:01.568Z,18.77
2022-12-03T06:21:45.477Z,18.30
2022-12-03T06:24:29.422Z,17.47
2022-12-03T06:27:13.537Z,17.20
2022-12-03T06:29:57.445Z,17.90
2022-12-03T06:32:41.279Z,15.73
2022-12-03T06:35:26.483Z,16.03
2022-12-03T06:38:10.321Z,18.40
2022-12-03T06:40:54.071Z,17.43
2022-12-03T06:43:37.838Z,16.23
2022-12-03T06:46:21.662Z,15.47
2022-12-03T06:49:05.915Z,16.57
2022-12-03T06:51:51.083Z,15.97
2022-12-03T06:54:34.906Z,16.63
2022-12-03T06:57:18.706Z,16.10
2022-12-03T07:00:02.379Z,15.03
2022-12-03T07:02:47.762Z,13.40
2022-12-03T07:05:31.591Z,18.33
2022-12-03T07:08:16.902Z,14.73
2022-12-03T07:11:00.884Z,14.13
2022-12-03T07:13:45.855Z,16.60
2022-12-03T07:16:30.672Z,15.60
2022-12-03T07:19:14.981Z,13.60
2022-12-03T07:21:58.967Z,17.60
2022-12-03T07:24:44.420Z,19.93
2022-12-03T07:27:28.357Z,17.00
2022-12-03T07:30:15.239Z,17.07
2022-12-03T07:32:59.255Z,15.60
2022-12-03T07:35:44.268Z,17.90
2022-12-03T07:38:28.268Z,20.77
2022-12-03T07:41:13.754Z,21.03
2022-12-03T07:43:57.783Z,16.97
2022-12-03T07:46:42.193Z,15.43
2022-12-03T07:49:26.893Z,12.53
2022-12-03T07:52:10.984Z,13.47
2022-12-03T07:54:55.239Z,13.87
2022-12-03T07:57:41.101Z,13.10
2022-12-03T08:00:25.401Z,13.20
2022-12-03T08:03:09.552Z,12.43
2022-12-03T08:05:53.560Z,11.70
2022-12-03T08:08:37.541Z,11.47
2022-12-03T08:11:21.726Z,12.20
2022-12-03T08:14:14.302Z,12.87
2022-12-03T08:16:58.323Z,15.33
2022-12-03T08:19:46.599Z,12.37
2022-12-03T08:22:30.933Z,12.33
2022-12-03T08:25:19.014Z,13.13
2022-12-03T08:28:12.320Z,21.70
2022-12-03T08:31:04.008Z,13.87
2022-12-03T08:33:50.677Z,12.50
2022-12-03T08:36:36.668Z,14.20
2022-12-03T08:39:29.915Z,15.57
2022-12-03T08:42:34.980Z,14.07
2022-12-03T08:45:39.964Z,15.47
2022-12-03T08:48:30.178Z,14.23
2022-12-03T08:51:20.483Z,12.50
2022-12-03T08:54:12.867Z,18.23
2022-12-03T08:56:56.845Z,13.47
2022-12-03T08:59:45.342Z,24.93
2022-12-03T09:02:33.600Z,19.17
2022-12-03T09:05:22.695Z,40.73
2022-12-03T09:08:06.816Z,21.30
2022-12-03T09:10:50.909Z,30.50
2022-12-03T09:13:34.824Z,17.17
2022-12-03T09:16:19.967Z,12.73
2022-12-03T09:19:03.880Z,14.40
2022-12-03T09:21:48.970Z,12.83
2022-12-03T09:24:32.944Z,16.87
2022-12-03T09:27:16.791Z,17.73
2022-12-03T09:30:00.521Z,15.33
2022-12-03T09:32:44.348Z,14.23
2022-12-03T09:35:28.224Z,16.07
2022-12-03T09:38:13.350Z,12.70
2022-12-03T09:40:57.504Z,17.23
2022-12-03T09:44:03.326Z,14.17
2022-12-03T09:46:47.355Z,13.37
2022-12-03T09:49:33.117Z,16.47
2022-12-03T09:52:22.677Z,17.13
2022-12-03T09:55:17.018Z,17.17
2022-12-03T09:58:01.398Z,15.10
2022-12-03T10:00:48.494Z,17.70
2022-12-03T10:03:33.660Z,14.50
2022-12-03T10:06:20.062Z,24.73
2022-12-03T10:09:06.244Z,18.83
2022-12-03T10:11:51.508Z,15.17
2022-12-03T10:14:35.804Z,17.57
2022-12-03T10:17:19.751Z,15.37
2022-12-03T10:20:03.603Z,21.63
2022-12-03T10:22:48.984Z,23.57
2022-12-03T10:25:32.913Z,13.30
2022-12-03T10:28:28.994Z,17.97
2022-12-03T10:31:14.434Z,13.30
2022-12-03T10:33:59.568Z,15.10
2022-12-03T10:36:43.250Z,13.07
2022-12-03T10:39:27.107Z,21.63
2022-12-03T10:42:16.558Z,21.27
2022-12-03T10:45:19.849Z,19.00
2022-12-03T10:48:07.309Z,14.37
2022-12-03T10:50:54.118Z,14.70
2022-12-03T10:53:41.576Z,16.77
2022-12-03T10:56:27.784Z,14.03
2022-12-03T10:59:16.518Z,14.10
2022-12-03T11:02:04.233Z,14.33
2022-12-03T11:04:48.935Z,14.57
2022-12-03T11:07:33.243Z,13.87
2022-12-03T11:10:20.157Z,16.80
2022-12-03T11:13:44.096Z,14.40
2022-12-03T11:17:07.935Z,20.07
2022-12-03T11:19:53.766Z,18.57
2022-12-03T11:22:46.665Z,20.10
2022-12-03T11:25:50.587Z,21.50
2022-12-03T11:28:51.278Z,20.57
2022-12-03T11:31:40.731Z,19.13
2022-12-03T11:34:48.926Z,15.43
2022-12-03T11:37:34.025Z,19.47
2022-12-03T11:40:28.459Z,17.83
2022-12-03T11:43:12.252Z,26.73
2022-12-03T11:46:02.687Z,18.13
2022-12-03T11:48:49.525Z,20.90
2022-12-03T11:51:33.704Z,17.30
2022-12-03T11:54:22.702Z,16.40
2022-12-03T11:57:29.033Z,27.70
2022-12-03T12:00:24.575Z,17.00
2022-12-03T12:03:23.872Z,17.40
2022-12-03T12:06:10.003Z,18.27
2022-12-03T12:08:58.708Z,27.03
2022-12-03T12:11:44.019Z,26.50
2022-12-03T12:14:27.943Z,30.60
2022-12-03T12:17:30.514Z,29.07
2022-12-03T12:20:26.274Z,19.67
2022-12-03T12:23:24.067Z,21.60
2022-12-03T12:26:08.146Z,21.37
2022-12-03T12:28:53.364Z,19.23
2022-12-03T12:31:37.087Z,19.93
2022-12-03T12:34:20.871Z,23.87
2022-12-03T12:37:10.141Z,20.93
2022-12-03T12:39:57.337Z,20.83
2022-12-03T12:42:53.699Z,17.43
2022-12-03T12:45:41.239Z,22.43
2022-12-03T12:48:27.915Z,19.87
2022-12-03T12:51:18.779Z,19.83
2022-12-03T12:54:03.451Z,18.20
2022-12-03T12:56:50.081Z,24.67
2022-12-03T12:59:34.185Z,30.80
2022-12-03T13:02:42.595Z,22.37
2022-12-03T13:05:27.927Z,23.63
2022-12-03T13:08:22.287Z,22.57
2022-12-03T13:11:06.548Z,22.87
2022-12-03T13:13:50.328Z,22.87
2022-12-03T13:16:35.626Z,24.37
2022-12-03T13:19:26.542Z,21.20
2022-12-03T13:22:14.544Z,22.43
2022-12-03T13:25:37.942Z,20.10
2022-12-03T13:28:22.642Z,20.53
2022-12-03T13:31:23.099Z,21.47
2022-12-03T13:34:17.256Z,22.10
2022-12-03T13:37:03.257Z,20.17
2022-12-03T13:39:48.926Z,22.30
2022-12-03T13:42:42.227Z,32.03
2022-12-03T13:45:32.940Z,29.00
2022-12-03T13:48:22.978Z,27.17
2022-12-03T13:51:21.284Z,27.23
2022-12-03T13:54:14.604Z,31.27
2022-12-03T13:57:00.303Z,32.10
2022-12-03T13:59:44.168Z,41.70
2022-12-03T14:02:28.003Z,38.57
2022-12-03T14:05:12.097Z,30.93
2022-12-03T14:08:01.860Z,32.80
2022-12-03T14:10:47.281Z,34.33
2022-12-03T14:13:31.051Z,44.70
2022-12-03T14:16:14.915Z,37.60
2022-12-03T14:18:58.827Z,35.00
2022-12-03T14:21:42.784Z,37.33
2022-12-03T14:24:26.731Z,28.23
2022-12-03T14:27:11.998Z,24.27
2022-12-03T14:29:56.423Z,24.57
2022-12-03T14:32:40.746Z,22.43
2022-12-03T14:35:24.732Z,23.83
2022-12-03T14:38:08.774Z,37.43
2022-12-03T14:40:52.727Z,44.47
2022-12-03T14:43:37.976Z,34.67
2022-12-03T14:46:21.773Z,27.83
2022-12-03T14:49:05.582Z,54.07
2022-12-03T14:51:49.285Z,24.63
2022-12-03T14:54:33.163Z,23.37
2022-12-03T14:57:17.430Z,21.33
2022-12-03T15:00:02.636Z,23.90
2022-12-03T15:02:47.300Z,23.93
2022-12-03T15:05:31.194Z,24.07
2022-12-03T15:08:14.916Z,23.23
2022-12-03T15:10:58.755Z,21.70
2022-12-03T15:13:42.567Z,23.50
2022-12-03T15:16:27.843Z,29.33
2022-12-03T15:19:11.691Z,24.77
2022-12-03T15:21:55.536Z,26.00
2022-12-03T15:24:39.313Z,24.20
2022-12-03T15:27:23.518Z,22.30
2022-12-03T15:30:08.820Z,30.17
2022-12-03T15:32:53.936Z,25.03
2022-12-03T15:35:37.868Z,24.83
2022-12-03T15:38:21.717Z,24.03
2022-12-03T15:41:21.673Z,20.70
2022-12-03T15:44:05.708Z,24.87
2022-12-03T15:46:49.584Z,29.57
2022-12-03T15:49:34.680Z,25.90
2022-12-03T15:52:18.760Z,26.50
2022-12-03T15:55:02.816Z,26.73
2022-12-03T15:57:47.510Z,30.30
2022-12-03T16:00:31.376Z,23.83
2022-12-03T16:03:15.956Z,32.33
2022-12-03T16:06:01.195Z,35.77
2022-12-03T16:08:45.190Z,29.40
2022-12-03T16:11:28.906Z,35.53
2022-12-03T16:14:12.586Z,48.27
2022-12-03T16:16:56.506Z,44.47
2022-12-03T16:19:40.512Z,36.93
2022-12-03T16:22:26.107Z,35.90
2022-12-03T16:25:10.346Z,41.37
2022-12-03T16:27:54.305Z,27.43
2022-12-03T16:30:38.360Z,22.67
2022-12-03T16:33:27.263Z,27.90
2022-12-03T16:36:11.942Z,39.70
2022-12-03T16:38:58.247Z,33.47
2022-12-03T16:41:42.218Z,25.60
2022-12-03T16:44:43.664Z,33.47
2022-12-03T16:47:33.366Z,27.40
2022-12-03T16:50:24.319Z,28.07
2022-12-03T16:53:13.268Z,27.43
2022-12-03T16:55:58.780Z,28.23
2022-12-03T16:58:42.874Z,28.83
2022-12-03T17:01:26.963Z,23.00
2022-12-03T17:04:11.113Z,23.53
2022-12-03T17:06:55.116Z,22.53
2022-12-03T17:09:39.765Z,20.90
2022-12-03T17:12:25.509Z,21.43
2022-12-03T17:15:10.336Z,24.20
2022-12-03T17:17:54.403Z,19.10
2022-12-03T17:20:38.885Z,20.87
2022-12-03T17:23:22.913Z,32.63
2022-12-03T17:26:06.978Z,18.93
2022-12-03T17:28:52.453Z,17.73
2022-12-03T17:31:41.723Z,16.87
2022-12-03T17:34:26.362Z,19.40
2022-12-03T17:37:10.291Z,21.80
2022-12-03T17:39:54.573Z,15.27
2022-12-03T17:42:38.799Z,17.37
2022-12-03T17:45:24.175Z,25.70
2022-12-03T17:48:08.572Z,23.93
2022-12-03T17:50:55.480Z,33.20
2022-12-03T17:53:39.469Z,28.40
2022-12-03T17:56:23.510Z,25.20
2022-12-03T17:59:07.600Z,24.33
2022-12-03T18:01:53.213Z,25.20
2022-12-03T18:04:37.365Z,20.03
2022-12-03T18:07:21.379Z,23.90
2022-12-03T18:10:06.265Z,19.03
2022-12-03T18:12:50.256Z,21.73
2022-12-03T18:15:34.271Z,21.77
2022-12-03T18:18:19.629Z,17.07
2022-12-03T18:21:04.417Z,18.63
2022-12-03T18:23:48.745Z,21.90
2022-12-03T18:26:33.173Z,18.77
2022-12-03T18:29:17.238Z,20.23
2022-12-03T18:32:01.335Z,21.80
2022-12-03T18:34:46.863Z,17.10
2022-12-03T18:37:32.326Z,16.80
2022-12-03T18:40:20.320Z,12.83
2022-12-03T18:43:07.149Z,17.27
2022-12-03T18:45:51.154Z,21.17
2022-12-03T18:48:35.112Z,19.27
2022-12-03T18:51:23.650Z,13.57
2022-12-03T18:54:12.756Z,20.90
2022-12-03T18:56:56.768Z,19.17
2022-12-03T18:59:40.706Z,19.23
2022-12-03T19:05:28.952Z,19.23
2022-12-03T19:08:15.478Z,18.43
2022-12-03T19:11:01.368Z,17.80
2022-12-03T19:13:45.989Z,19.40
2022-12-03T19:16:30.622Z,14.47
2022-12-03T19:19:14.620Z,19.47
2022-12-03T19:21:58.751Z,20.70
2022-12-03T19:24:44.465Z,30.37
2022-12-03T19:27:30.779Z,39.40
2022-12-03T19:30:15.381Z,22.40
2022-12-03T19:32:59.347Z,20.23
2022-12-03T19:35:43.319Z,20.13
2022-12-03T19:38:29.211Z,22.90
2022-12-03T19:41:14.687Z,24.93
2022-12-03T19:43:59.523Z,24.83
2022-12-03T19:46:44.370Z,20.63
2022-12-03T19:49:28.462Z,22.10
2022-12-03T19:52:12.486Z,23.87
2022-12-03T19:54:56.682Z,22.17
2022-12-03T19:57:42.167Z,21.77
2022-12-03T20:00:26.336Z,20.40
2022-12-03T20:03:10.377Z,20.50
2022-12-03T20:05:54.954Z,23.10
2022-12-03T20:08:39.183Z,17.00
2022-12-03T20:11:24.114Z,23.13
2022-12-03T20:14:12.700Z,22.43
2022-12-03T20:16:56.763Z,20.77
2022-12-03T20:19:40.810Z,22.93
2022-12-03T20:22:24.741Z,21.87
2022-12-03T20:25:09.302Z,21.57
2022-12-03T20:27:53.357Z,19.33
2022-12-03T20:30:38.443Z,17.50
2022-12-03T20:33:22.131Z,15.20
2022-12-03T20:36:06.406Z,15.97
2022-12-03T20:38:54.545Z,17.57
2022-12-03T20:41:39.106Z,16.97
2022-12-03T20:44:23.000Z,18.77
2022-12-03T20:47:08.733Z,17.00
2022-12-03T20:49:52.782Z,15.87
2022-12-03T20:52:37.719Z,14.13
2022-12-03T20:55:21.540Z,13.87
2022-12-03T20:58:05.462Z,14.83
2022-12-03T21:00:49.320Z,16.33
2022-12-03T21:03:34.557Z,15.20
2022-12-03T21:06:18.706Z,18.40
2022-12-03T21:09:02.589Z,18.27
2022-12-03T21:11:46.556Z,14.53
2022-12-03T21:14:30.287Z,14.53
2022-12-03T21:17:14.201Z,16.50
2022-12-03T21:19:59.697Z,14.37
2022-12-03T21:22:43.374Z,14.17
2022-12-03T21:25:27.118Z,17.47
2022-12-03T21:28:10.929Z,15.47
2022-12-03T21:30:54.830Z,18.10
2022-12-03T21:33:38.936Z,15.13
2022-12-03T21:36:25.135Z,21.07
2022-12-03T21:39:08.875Z,14.27
2022-12-03T21:42:19.349Z,15.77
2022-12-03T21:44:56.285Z,16.93
2022-12-03T21:47:40.368Z,14.73
2022-12-03T21:50:24.193Z,19.57
2022-12-03T21:53:10.019Z,17.93
2022-12-03T21:55:53.712Z,15.37
2022-12-03T21:58:37.674Z,18.77
2022-12-03T22:01:23.693Z,20.63
2022-12-03T22:04:07.519Z,18.30
2022-12-03T22:06:51.221Z,15.80
2022-12-03T22:09:36.520Z,17.50
2022-12-03T22:12:20.338Z,18.17
2022-12-03T22:15:04.160Z,16.13
2022-12-03T22:17:48.281Z,16.40
2022-12-03T22:20:32.190Z,16.60
2022-12-03T22:23:16.438Z,17.67
2022-12-03T22:26:05.110Z,15.30
2022-12-03T22:28:50.473Z,17.53
2022-12-03T22:31:34.353Z,19.23
2022-12-03T22:34:18.211Z,16.93
2022-12-03T22:37:02.007Z,18.37
2022-12-03T22:39:46.028Z,18.00
2022-12-03T22:42:31.073Z,20.93
2022-12-03T22:45:15.071Z,21.63
2022-12-03T22:47:58.755Z,20.73
2022-12-03T22:50:44.183Z,19.07
2022-12-03T22:53:27.934Z,20.57
2022-12-03T22:56:11.949Z,21.87
2022-12-03T22:58:57.317Z,20.63
2022-12-03T23:01:42.337Z,17.63
2022-12-03T23:04:26.033Z,17.60
2022-12-03T23:07:09.717Z,17.00
2022-12-03T23:09:53.927Z,18.13
2022-12-03T23:12:37.886Z,18.17
2022-12-03T23:15:23.039Z,16.43
2022-12-03T23:18:06.850Z,17.20
2022-12-03T23:20:52.149Z,14.27
2022-12-03T23:23:36.094Z,17.27
2022-12-03T23:26:19.902Z,15.37
2022-12-03T23:29:04.679Z,17.10
2022-12-03T23:31:49.799Z,18.00
2022-12-03T23:34:33.723Z,18.30
2022-12-03T23:37:17.435Z,21.60
2022-12-03T23:40:01.199Z,22.17
2022-12-03T23:42:45.354Z,19.87
2022-12-03T23:45:29.290Z,22.37
2022-12-03T23:48:14.455Z,21.73
2022-12-03T23:50:58.206Z,19.97
2022-12-03T23:53:42.553Z,19.23
2022-12-03T23:56:29.141Z,17.30
2022-12-03T23:59:13.265Z,15.43
